createdAt,value
2023-04-10T00:01:35.992Z,9.02
2023-04-10T00:05:37.756Z,8.88
2023-04-10T00:09:39.491Z,9.82
2023-04-10T00:13:41.224Z,9.68
2023-04-10T00:17:43.021Z,10.32
2023-04-10T00:21:44.834Z,9.00
2023-04-10T00:25:47.787Z,11.10
2023-04-10T00:29:49.478Z,9.18
2023-04-10T00:33:51.424Z,10.45
2023-04-10T00:37:54.537Z,9.68
2023-04-10T00:41:57.579Z,10.75
2023-04-10T00:45:59.555Z,11.23
2023-04-10T00:50:01.656Z,13.38
2023-04-10T00:54:04.189Z,11.63
2023-04-10T00:58:06.786Z,10.20
2023-04-10T01:02:08.629Z,11.32
2023-04-10T01:06:34.648Z,11.57
2023-04-10T01:10:51.821Z,11.12
2023-04-10T01:15:06.923Z,11.43
2023-04-10T01:19:38.766Z,10.90
2023-04-10T01:23:55.500Z,9.88
2023-04-10T01:28:19.690Z,10.93
2023-04-10T01:32:23.893Z,13.15
2023-04-10T01:36:29.241Z,9.27
2023-04-10T01:40:32.729Z,10.38
2023-04-10T01:44:36.488Z,11.32
2023-04-10T01:48:38.532Z,11.35
2023-04-10T01:52:40.982Z,11.27
2023-04-10T01:56:43.255Z,12.98
2023-04-10T02:00:45.416Z,10.25
2023-04-10T02:04:51.438Z,11.93
2023-04-10T02:09:10.984Z,9.60
2023-04-10T02:13:16.151Z,8.75
2023-04-10T02:17:23.284Z,8.35
2023-04-10T02:21:26.941Z,9.23
2023-04-10T02:25:32.114Z,9.10
2023-04-10T02:29:33.827Z,8.98
2023-04-10T02:33:35.646Z,9.95
2023-04-10T02:37:37.355Z,10.65
2023-04-10T02:41:39.047Z,13.80
2023-04-10T02:45:41.655Z,9.10
2023-04-10T02:49:44.125Z,9.43
2023-04-10T02:53:46.026Z,11.38
2023-04-10T02:57:47.812Z,8.95
2023-04-10T03:01:52.138Z,11.45
2023-04-10T03:05:54.133Z,10.10
2023-04-10T03:09:55.971Z,12.43
2023-04-10T03:14:00.991Z,11.35
2023-04-10T03:18:03.172Z,9.77
2023-04-10T03:22:04.929Z,9.93
2023-04-10T03:26:06.882Z,9.88
2023-04-10T03:30:09.005Z,9.98
2023-04-10T03:34:10.645Z,10.10
2023-04-10T03:38:12.336Z,12.65
2023-04-10T03:42:14.046Z,9.52
2023-04-10T03:46:16.298Z,9.13
2023-04-10T03:50:18.424Z,8.93
2023-04-10T03:54:20.248Z,8.30
2023-04-10T03:58:21.932Z,8.88
2023-04-10T04:02:23.793Z,9.73
2023-04-10T04:06:25.791Z,9.90
2023-04-10T04:10:27.505Z,9.18
2023-04-10T04:14:29.201Z,8.32
2023-04-10T04:18:30.866Z,8.10
2023-04-10T04:22:32.517Z,10.60
2023-04-10T04:26:34.286Z,8.18
2023-04-10T04:30:35.970Z,8.80
2023-04-10T04:34:37.692Z,10.02
2023-04-10T04:38:39.391Z,9.05
2023-04-10T04:42:41.087Z,8.27
2023-04-10T04:46:44.619Z,8.18
2023-04-10T04:50:46.518Z,8.35
2023-04-10T04:54:48.205Z,8.35
2023-04-10T04:58:49.890Z,9.70
2023-04-10T05:02:51.736Z,8.82
2023-04-10T05:06:53.639Z,9.07
2023-04-10T05:10:55.344Z,9.10
2023-04-10T05:14:57.058Z,10.15
2023-04-10T05:18:58.848Z,8.23
2023-04-10T05:23:00.935Z,9.85
2023-04-10T05:27:02.983Z,9.95
2023-04-10T05:31:04.953Z,11.55
2023-04-10T05:35:07.316Z,8.95
2023-04-10T05:39:09.111Z,8.73
2023-04-10T05:43:10.799Z,8.13
2023-04-10T05:47:12.563Z,9.13
2023-04-10T05:51:14.242Z,9.50
2023-04-10T05:55:15.957Z,8.30
2023-04-10T05:59:17.734Z,8.82
2023-04-10T06:03:20.028Z,8.07
2023-04-10T06:07:21.836Z,8.50
2023-04-10T06:11:23.559Z,8.32
2023-04-10T06:15:25.330Z,9.07
2023-04-10T06:19:27.023Z,9.65
2023-04-10T06:23:29.022Z,8.88
2023-04-10T06:27:30.727Z,8.25
2023-04-10T06:31:35.358Z,8.27
2023-04-10T06:35:37.541Z,9.48
2023-04-10T06:39:39.796Z,9.02
2023-04-10T06:43:41.588Z,7.78
2023-04-10T06:47:43.369Z,7.97
2023-04-10T06:51:46.022Z,8.30
2023-04-10T06:55:47.923Z,8.60
2023-04-10T06:59:49.566Z,7.22
2023-04-10T07:03:51.322Z,6.62
2023-04-10T07:07:53.276Z,7.32
2023-04-10T07:11:55.316Z,7.62
2023-04-10T07:15:57.026Z,8.63
2023-04-10T07:19:58.914Z,6.80
2023-04-10T07:24:00.625Z,7.53
2023-04-10T07:28:02.298Z,7.28
2023-04-10T07:32:04.495Z,7.55
2023-04-10T07:36:06.966Z,6.40
2023-04-10T07:40:09.310Z,7.32
2023-04-10T07:44:11.319Z,7.15
2023-04-10T07:48:13.099Z,7.93
2023-04-10T07:52:14.762Z,6.28
2023-04-10T07:56:17.866Z,10.73
2023-04-10T08:00:19.650Z,6.32
2023-04-10T08:04:21.888Z,6.45
2023-04-10T08:08:23.699Z,6.05
2023-04-10T08:12:25.427Z,5.97
2023-04-10T08:16:28.574Z,5.00
2023-04-10T08:20:31.308Z,5.87
2023-04-10T08:24:33.030Z,5.12
2023-04-10T08:28:34.732Z,5.15
2023-04-10T08:32:36.604Z,5.20
2023-04-10T08:36:38.310Z,4.93
2023-04-10T08:40:40.157Z,5.03
2023-04-10T08:44:41.876Z,5.47
2023-04-10T08:48:52.543Z,5.12
2023-04-10T08:52:55.365Z,5.00
2023-04-10T08:56:58.513Z,4.53
2023-04-10T09:01:01.745Z,4.55
2023-04-10T09:05:05.122Z,5.18
2023-04-10T09:09:07.216Z,6.85
2023-04-10T09:13:08.972Z,5.07
2023-04-10T09:17:13.386Z,6.10
2023-04-10T09:21:20.700Z,5.10
2023-04-10T09:25:36.557Z,5.95
2023-04-10T09:29:40.123Z,6.15
2023-04-10T09:33:42.068Z,4.57
2023-04-10T09:37:45.872Z,3.65
2023-04-10T09:41:49.554Z,4.12
2023-04-10T09:45:53.753Z,4.37
2023-04-10T09:50:00.216Z,3.95
2023-04-10T09:54:03.466Z,5.47
2023-04-10T09:58:06.367Z,4.65
2023-04-10T10:02:08.635Z,3.83
2023-04-10T10:06:11.899Z,4.03
2023-04-10T10:10:14.085Z,4.95
2023-04-10T10:14:19.158Z,4.07
2023-04-10T10:18:42.720Z,4.50
2023-04-10T10:22:46.384Z,3.33
2023-04-10T10:26:48.975Z,2.70
2023-04-10T10:30:51.336Z,3.60
2023-04-10T10:34:53.811Z,4.50
2023-04-10T10:39:23.616Z,4.55
2023-04-10T10:43:36.106Z,4.57
2023-04-10T10:47:43.809Z,3.58
2023-04-10T10:51:49.380Z,3.22
2023-04-10T10:55:51.083Z,3.65
2023-04-10T10:59:52.700Z,3.28
2023-04-10T11:03:54.610Z,2.72
2023-04-10T11:07:59.442Z,3.08
2023-04-10T11:12:01.156Z,3.33
2023-04-10T11:16:04.394Z,2.83
2023-04-10T11:20:07.835Z,3.22
2023-04-10T11:24:09.519Z,2.90
2023-04-10T11:28:45.601Z,3.60
2023-04-10T11:32:49.871Z,3.10
2023-04-10T11:36:53.234Z,3.55
2023-04-10T11:41:04.212Z,3.15
2023-04-10T11:45:26.009Z,3.50
2023-04-10T11:49:31.139Z,3.15
2023-04-10T11:53:32.779Z,3.55
2023-04-10T11:57:35.271Z,3.25
2023-04-10T12:01:37.414Z,2.90
2023-04-10T12:05:46.936Z,2.72
2023-04-10T12:09:58.833Z,2.67
2023-04-10T12:14:00.514Z,3.00
2023-04-10T12:18:02.442Z,2.42
2023-04-10T12:22:04.444Z,3.70
2023-04-10T12:26:12.695Z,2.83
2023-04-10T12:30:14.428Z,7.22
2023-04-10T12:34:18.932Z,3.95
2023-04-10T12:38:43.772Z,3.15
2023-04-10T12:42:45.650Z,3.45
2023-04-10T12:46:47.445Z,2.65
2023-04-10T12:50:49.457Z,5.35
2023-04-10T12:54:51.151Z,2.60
2023-04-10T12:59:06.958Z,3.62
2023-04-10T13:03:08.761Z,2.83
2023-04-10T13:07:10.534Z,4.62
2023-04-10T13:11:12.226Z,3.00
2023-04-10T13:15:14.029Z,2.35
2023-04-10T13:19:15.793Z,4.10
2023-04-10T13:23:17.794Z,2.80
2023-04-10T13:27:19.463Z,2.40
2023-04-10T13:31:21.215Z,3.05
2023-04-10T13:35:23.009Z,2.20
2023-04-10T13:39:26.333Z,2.70
2023-04-10T13:43:28.065Z,2.92
2023-04-10T13:47:29.806Z,4.45
2023-04-10T13:51:31.620Z,2.47
2023-04-10T13:55:33.324Z,1.90
2023-04-10T13:59:34.992Z,3.17
2023-04-10T14:03:36.716Z,2.90
2023-04-10T14:07:38.559Z,2.37
2023-04-10T14:11:40.246Z,2.50
2023-04-10T14:15:41.943Z,2.40
2023-04-10T14:19:43.856Z,2.60
2023-04-10T14:23:45.555Z,2.42
2023-04-10T14:27:47.298Z,2.33
2023-04-10T14:31:57.680Z,3.53
2023-04-10T14:36:00.283Z,1.87
2023-04-10T14:40:06.881Z,3.40
2023-04-10T14:44:09.045Z,3.35
2023-04-10T14:48:12.667Z,6.45
2023-04-10T14:52:14.850Z,1.70
2023-04-10T14:56:16.593Z,1.92
2023-04-10T15:00:18.344Z,1.62
2023-04-10T15:04:20.400Z,1.90
2023-04-10T15:08:22.083Z,1.40
2023-04-10T15:12:24.850Z,1.77
2023-04-10T15:16:26.599Z,2.70
2023-04-10T15:20:28.347Z,3.08
2023-04-10T15:24:32.488Z,2.85
2023-04-10T15:28:39.259Z,2.00
2023-04-10T15:32:41.080Z,3.78
2023-04-10T15:36:43.337Z,3.22
2023-04-10T15:40:45.226Z,3.33
2023-04-10T15:44:48.877Z,1.55
2023-04-10T15:48:51.164Z,2.40
2023-04-10T15:52:52.989Z,3.75
2023-04-10T15:56:54.665Z,3.78
2023-04-10T16:00:56.387Z,3.05
2023-04-10T16:04:58.078Z,2.55
2023-04-10T16:08:59.830Z,2.30
2023-04-10T16:13:04.274Z,2.95
2023-04-10T16:17:06.056Z,3.03
2023-04-10T16:21:16.831Z,3.67
2023-04-10T16:25:21.033Z,3.90
2023-04-10T16:29:23.641Z,3.20
2023-04-10T16:33:26.216Z,5.18
2023-04-10T16:37:27.929Z,6.32
2023-04-10T16:41:30.228Z,5.68
2023-04-10T16:45:31.943Z,6.75
2023-04-10T16:49:33.628Z,5.00
2023-04-10T16:53:36.173Z,6.72
2023-04-10T16:57:37.995Z,5.22
2023-04-10T17:01:39.780Z,6.05
2023-04-10T17:05:41.674Z,3.42
2023-04-10T17:09:43.362Z,5.50
2023-04-10T17:13:46.583Z,4.15
2023-04-10T17:17:48.451Z,4.47
2023-04-10T17:21:52.130Z,3.87
2023-04-10T17:25:54.022Z,4.53
2023-04-10T17:29:56.231Z,3.80
2023-04-10T17:33:58.632Z,4.40
2023-04-10T17:38:00.400Z,2.80
2023-04-10T17:42:02.089Z,4.40
2023-04-10T17:46:03.843Z,2.70
2023-04-10T17:50:06.174Z,3.58
2023-04-10T17:54:08.274Z,3.42
2023-04-10T17:58:10.045Z,4.07
2023-04-10T18:02:11.846Z,3.58
2023-04-10T18:06:13.628Z,4.47
2023-04-10T18:10:15.689Z,3.65
2023-04-10T18:14:17.465Z,5.15
2023-04-10T18:18:19.143Z,4.68
2023-04-10T18:22:20.855Z,5.57
2023-04-10T18:26:22.590Z,6.22
2023-04-10T18:30:24.429Z,5.22
2023-04-10T18:34:26.128Z,4.68
2023-04-10T18:38:28.102Z,6.32
2023-04-10T18:42:29.777Z,4.70
2023-04-10T18:46:32.441Z,4.55
2023-04-10T18:50:37.864Z,5.68
2023-04-10T18:54:39.557Z,7.10
2023-04-10T18:58:41.290Z,4.22
2023-04-10T19:02:43.718Z,5.55
2023-04-10T19:06:46.495Z,6.32
2023-04-10T19:10:48.187Z,6.15
2023-04-10T19:14:49.860Z,5.37
2023-04-10T19:18:53.947Z,5.00
2023-04-10T19:22:55.878Z,5.43
2023-04-10T19:26:57.588Z,5.10
2023-04-10T19:30:59.378Z,7.30
2023-04-10T19:35:01.152Z,5.43
2023-04-10T19:39:03.502Z,4.68
2023-04-10T19:43:05.216Z,4.22
2023-04-10T19:47:06.988Z,5.50
2023-04-10T19:51:08.668Z,2.08
2023-04-10T19:55:10.352Z,4.20
2023-04-10T19:59:12.092Z,4.05
2023-04-10T20:03:15.903Z,2.78
2023-04-10T20:07:17.813Z,6.18
2023-04-10T20:11:19.614Z,3.53
2023-04-10T20:15:21.403Z,4.20
2023-04-10T20:19:23.087Z,5.28
2023-04-10T20:23:24.833Z,5.62
2023-04-10T20:27:26.546Z,5.18
2023-04-10T20:31:28.949Z,4.37
2023-04-10T20:35:31.044Z,2.83
2023-04-10T20:39:33.345Z,4.32
2023-04-10T20:43:35.020Z,3.65
2023-04-10T20:47:36.736Z,4.22
2023-04-10T20:51:38.726Z,2.95
2023-04-10T20:57:17.377Z,4.45
2023-04-10T21:01:19.041Z,5.18
2023-04-10T21:05:20.765Z,3.10
2023-04-10T21:09:22.457Z,4.30
2023-04-10T21:13:24.236Z,2.62
2023-04-10T21:17:30.877Z,4.82
2023-04-10T21:21:32.551Z,4.87
2023-04-10T21:25:35.707Z,3.55
2023-04-10T21:29:37.343Z,1.80
2023-04-10T21:33:39.059Z,3.83
2023-04-10T21:37:40.792Z,1.15
2023-04-10T21:41:43.698Z,4.30
2023-04-10T21:45:45.465Z,4.97
2023-04-10T21:49:47.127Z,2.58
2023-04-10T21:53:48.813Z,1.12
2023-04-10T21:57:50.559Z,2.53
2023-04-10T22:01:52.485Z,1.80
2023-04-10T22:05:54.309Z,2.83
2023-04-10T22:09:56.036Z,1.77
2023-04-10T22:14:00.236Z,1.92
2023-04-10T22:18:07.574Z,2.17
2023-04-10T22:22:09.286Z,3.22
2023-04-10T22:26:10.986Z,3.28
2023-04-10T22:30:12.891Z,3.87
2023-04-10T22:34:14.543Z,1.87
2023-04-10T22:38:16.254Z,3.17
2023-04-10T22:42:17.899Z,2.30
2023-04-10T22:46:19.569Z,3.90
2023-04-10T22:50:21.406Z,3.75
2023-04-10T22:54:23.062Z,4.32
2023-04-10T22:58:24.711Z,5.95
2023-04-10T23:02:27.355Z,2.03
2023-04-10T23:06:29.144Z,3.30
2023-04-10T23:10:30.824Z,3.58
2023-04-10T23:14:35.728Z,7.03
2023-04-10T23:18:37.667Z,3.78
2023-04-10T23:22:39.438Z,2.70
2023-04-10T23:26:41.094Z,3.42
2023-04-10T23:30:42.803Z,2.25
2023-04-10T23:34:44.477Z,3.28
2023-04-10T23:38:46.195Z,4.78
2023-04-10T23:42:48.051Z,4.22
2023-04-10T23:46:50.548Z,3.42
2023-04-10T23:51:12.247Z,3.58
2023-04-10T23:55:13.882Z,4.03
2023-04-10T23:59:16.886Z,2.87
